Time;durP1;ratioP1;P1;durP2;ratioP2;P2;SDS_P1;SDS_P2;PMS_P1;PMS_P2;Temp;Humidity;BMP_temperature;BMP_pressure;BME280_temperature;BME280_humidity;BME280_pressure;Samples;Min_cycle;Max_cycle;Signal;HPM_P1;HPM_P2
2023/07/16 00:00:31;;;;;;;8.90;8.60;;;20.40;99.90;;;;;;5124394;27;20264;-81
2023/07/16 00:02:59;;;;;;;8.80;8.50;;;20.30;99.90;;;;;;5119769;28;20224;-81
2023/07/16 00:05:26;;;;;;;8.85;8.55;;;20.30;99.90;;;;;;5119015;28;20225;-82
2023/07/16 00:07:54;;;;;;;8.80;8.50;;;20.20;99.90;;;;;;5119453;28;20282;-81
2023/07/16 00:10:22;;;;;;;9.00;8.70;;;20.20;99.90;;;;;;5119876;28;20228;-81
2023/07/16 00:12:51;;;;;;;9.00;8.70;;;20.30;99.90;;;;;;5119747;28;20236;-82
2023/07/16 00:15:20;;;;;;;8.80;8.50;;;20.30;99.90;;;;;;5131496;28;20208;-82
2023/07/16 00:17:48;;;;;;;8.80;8.50;;;20.30;99.90;;;;;;5138940;28;20221;-82
2023/07/16 00:20:16;;;;;;;8.75;8.45;;;20.40;99.90;;;;;;5137765;27;20213;-81
2023/07/16 00:22:44;;;;;;;8.80;8.50;;;20.40;99.90;;;;;;5127481;28;20284;-81
2023/07/16 00:25:12;;;;;;;9.10;8.80;;;20.40;99.90;;;;;;5123290;28;20241;-81
2023/07/16 00:27:39;;;;;;;9.07;8.77;;;20.50;99.90;;;;;;5121904;28;20397;-82
2023/07/16 00:30:10;;;;;;;8.80;8.50;;;20.50;99.90;;;;;;5122398;27;20278;-81
2023/07/16 00:32:38;;;;;;;8.73;8.43;;;20.50;99.90;;;;;;5135091;28;20225;-82
2023/07/16 00:35:10;;;;;;;8.73;8.43;;;20.50;99.90;;;;;;5123856;28;20299;-82
2023/07/16 00:37:37;;;;;;;8.88;8.57;;;20.50;99.90;;;;;;5123927;27;20237;-82
2023/07/16 00:40:10;;;;;;;8.88;8.57;;;20.50;99.90;;;;;;5124343;27;20237;-81
2023/07/16 00:42:38;;;;;;;8.95;8.65;;;20.40;99.90;;;;;;5124402;28;20224;-82
2023/07/16 00:45:16;;;;;;;8.90;8.60;;;20.40;99.90;;;;;;5126191;28;20243;-81
2023/07/16 00:47:45;;;;;;;9.05;8.75;;;20.40;99.90;;;;;;5138303;28;20221;-81
2023/07/16 00:50:14;;;;;;;8.98;8.68;;;20.40;99.90;;;;;;5137599;27;20239;-82
2023/07/16 00:52:42;;;;;;;9.00;8.70;;;20.40;99.90;;;;;;5138065;28;20227;-81
2023/07/16 00:55:13;;;;;;;8.90;8.60;;;20.40;99.90;;;;;;5130018;28;20239;-82
2023/07/16 00:57:41;;;;;;;8.93;8.63;;;20.40;99.90;;;;;;5125701;28;20232;-83
2023/07/16 01:00:14;;;;;;;9.00;8.70;;;20.40;99.90;;;;;;5125177;27;20288;-83
2023/07/16 01:02:42;;;;;;;9.00;8.70;;;20.40;99.90;;;;;;5124746;28;20237;-83
2023/07/16 01:05:10;;;;;;;8.90;8.60;;;20.30;99.90;;;;;;5123582;28;20398;-83
2023/07/16 01:07:43;;;;;;;8.90;8.60;;;20.30;99.90;;;;;;5124066;28;20221;-83
2023/07/16 01:10:11;;;;;;;9.10;8.80;;;20.20;99.90;;;;;;5123441;27;20253;-83
2023/07/16 01:12:39;;;;;;;8.93;8.63;;;20.20;99.90;;;;;;5124576;28;20232;-82
2023/07/16 01:15:11;;;;;;;9.10;8.80;;;20.20;99.90;;;;;;5123747;28;20264;-83
2023/07/16 01:17:45;;;;;;;8.70;8.40;;;20.20;99.90;;;;;;5123229;28;20336;-83
2023/07/16 01:20:13;;;;;;;8.95;8.65;;;20.10;99.90;;;;;;5123775;27;20228;-83
2023/07/16 01:23:07;;;;;;;8.90;8.60;;;20.10;99.90;;;;;;5123855;28;20228;-83
2023/07/16 01:25:58;;;;;;;8.80;8.50;;;20.00;99.90;;;;;;5123700;28;20232;-82
2023/07/16 01:29:14;;;;;;;8.85;8.55;;;20.00;99.90;;;;;;5123688;28;20228;-83
2023/07/16 01:31:44;;;;;;;8.65;8.45;;;19.90;99.90;;;;;;5105032;28;20233;-83
2023/07/16 01:34:18;;;;;;;8.90;8.60;;;19.80;99.90;;;;;;5123422;28;20234;-83
2023/07/16 01:36:48;;;;;;;8.80;8.50;;;19.70;99.90;;;;;;5123497;28;20236;-83
2023/07/16 01:39:16;;;;;;;8.90;8.60;;;19.70;99.90;;;;;;5124331;28;20228;-83
2023/07/16 01:41:53;;;;;;;8.85;8.55;;;19.70;99.90;;;;;;5125007;27;20236;-83
2023/07/16 01:44:22;;;;;;;8.80;8.50;;;19.60;99.90;;;;;;5121436;28;20260;-83
2023/07/16 01:47:08;;;;;;;8.70;8.40;;;19.60;99.90;;;;;;5121821;28;20228;-84
2023/07/16 01:49:41;;;;;;;8.80;8.50;;;19.60;99.90;;;;;;5120396;27;20225;-84
2023/07/16 01:52:15;;;;;;;9.00;8.70;;;19.50;99.90;;;;;;5122350;28;20225;-83
2023/07/16 01:54:50;;;;;;;8.90;8.60;;;19.60;99.90;;;;;;5122506;28;20228;-84
2023/07/16 01:57:18;;;;;;;9.00;8.70;;;19.60;99.90;;;;;;5122832;28;20709;-84
2023/07/16 01:59:50;;;;;;;8.93;8.63;;;19.70;99.90;;;;;;5121997;27;20260;-84
2023/07/16 02:02:21;;;;;;;8.98;8.68;;;19.70;99.90;;;;;;5123355;28;20316;-84
2023/07/16 02:04:52;;;;;;;9.00;8.70;;;19.70;99.90;;;;;;5123067;28;20225;-84
2023/07/16 02:07:32;;;;;;;9.00;8.70;;;19.70;99.90;;;;;;5123404;28;20224;-84
2023/07/16 02:10:02;;;;;;;8.80;8.50;;;19.70;99.90;;;;;;5122867;27;20249;-83
2023/07/16 02:12:34;;;;;;;8.93;8.63;;;19.70;99.90;;;;;;5122632;28;20264;-84
2023/07/16 02:15:05;;;;;;;9.00;8.70;;;19.60;99.90;;;;;;5125814;28;20228;-84
2023/07/16 02:17:49;;;;;;;9.00;8.70;;;19.60;99.90;;;;;;5133402;27;20224;-83
2023/07/16 02:20:20;;;;;;;8.90;8.60;;;19.50;99.90;;;;;;5134794;27;20252;-83
2023/07/16 02:22:55;;;;;;;8.80;8.50;;;19.50;99.90;;;;;;5124269;28;20213;-83
2023/07/16 02:25:33;;;;;;;;;;;;;;;;;;;;;
2023/07/16 02:28:02;;;;;;;8.88;8.57;;;19.30;99.90;;;;;;5121179;28;20236;-84
2023/07/16 02:30:38;;;;;;;8.82;8.52;;;19.20;99.90;;;;;;5122903;27;20311;-83
2023/07/16 02:33:07;;;;;;;8.90;8.60;;;19.20;99.90;;;;;;5129578;28;20224;-83
2023/07/16 02:35:38;;;;;;;9.00;8.70;;;19.20;99.90;;;;;;5129248;28;20235;-83
2023/07/16 02:38:14;;;;;;;8.80;8.50;;;19.10;99.90;;;;;;5127526;28;20233;-83
2023/07/16 02:40:48;;;;;;;8.77;8.48;;;19.00;99.90;;;;;;5124866;27;20862;-82
2023/07/16 02:43:20;;;;;;;8.77;8.48;;;19.00;99.90;;;;;;5124058;28;20220;-83
2023/07/16 02:45:50;;;;;;;8.50;8.30;;;19.00;99.90;;;;;;5123309;28;20228;-83
2023/07/16 02:48:25;;;;;;;8.43;8.23;;;18.90;99.90;;;;;;5123504;28;20251;-81
2023/07/16 02:50:55;;;;;;;8.73;8.43;;;18.90;99.90;;;;;;5122698;27;20271;-81
2023/07/16 02:56:19;;;;;;;8.50;8.30;;;18.90;99.90;;;;;;5122716;27;20224;-82
2023/07/16 02:58:51;;;;;;;8.63;8.38;;;18.90;99.90;;;;;;5122272;28;20228;-82
2023/07/16 03:01:24;;;;;;;8.90;8.60;;;18.90;99.90;;;;;;5122910;27;20268;-81
2023/07/16 03:03:59;;;;;;;9.00;8.70;;;18.90;99.90;;;;;;5122760;28;20229;-82
2023/07/16 03:06:28;;;;;;;8.82;8.52;;;18.90;99.90;;;;;;5121830;28;20228;-82
2023/07/16 03:09:03;;;;;;;8.80;8.50;;;18.90;99.90;;;;;;5121969;28;20952;-81
2023/07/16 03:11:31;;;;;;;8.88;8.57;;;18.80;99.90;;;;;;5122809;27;20263;-81
2023/07/16 03:13:59;;;;;;;8.90;8.60;;;18.80;99.90;;;;;;5122256;28;20224;-82
2023/07/16 03:16:30;;;;;;;9.10;8.80;;;18.80;99.90;;;;;;5121152;28;20251;-82
2023/07/16 03:19:02;;;;;;;9.00;8.70;;;18.80;99.90;;;;;;5121283;28;20232;-81
2023/07/16 03:21:40;;;;;;;9.00;8.70;;;18.80;99.90;;;;;;5125378;27;20232;-81
2023/07/16 03:24:11;;;;;;;9.20;8.90;;;18.80;99.90;;;;;;5119838;28;20229;-82
2023/07/16 03:26:40;;;;;;;8.98;8.68;;;18.80;99.90;;;;;;5120694;28;20244;-82
2023/07/16 03:29:09;;;;;;;9.20;8.90;;;18.80;99.90;;;;;;5127952;28;20243;-81
2023/07/16 03:31:44;;;;;;;9.20;8.90;;;18.80;99.90;;;;;;5131212;27;20221;-82
2023/07/16 03:34:21;;;;;;;9.20;8.90;;;18.80;99.90;;;;;;5133579;28;20220;-82
2023/07/16 03:36:49;;;;;;;8.93;8.63;;;18.90;99.90;;;;;;5133915;28;20240;-81
2023/07/16 03:39:20;;;;;;;9.30;9.00;;;18.90;99.90;;;;;;5133964;28;20232;-81
2023/07/16 03:41:50;;;;;;;9.23;8.93;;;18.90;99.90;;;;;;5127603;28;20255;-82
2023/07/16 03:44:19;;;;;;;9.23;8.93;;;18.90;99.90;;;;;;5123207;28;20275;-82
2023/07/16 03:46:47;;;;;;;9.27;8.98;;;19.00;99.90;;;;;;5122662;28;20236;-82
2023/07/16 03:49:27;;;;;;;9.20;8.90;;;19.00;99.90;;;;;;5121647;28;20250;-82
2023/07/16 03:51:56;;;;;;;9.20;8.90;;;19.00;99.90;;;;;;5121334;28;20321;-82
2023/07/16 03:54:26;;;;;;;9.15;8.85;;;19.00;99.90;;;;;;5120924;28;20216;-82
2023/07/16 03:56:57;;;;;;;9.07;8.77;;;19.10;99.90;;;;;;5121784;28;20232;-82
2023/07/16 03:59:26;;;;;;;9.10;8.80;;;19.10;99.90;;;;;;5121187;28;20232;-82
2023/07/16 04:01:55;;;;;;;9.20;8.90;;;19.20;99.90;;;;;;5120375;28;20286;-82
2023/07/16 04:04:24;;;;;;;9.10;8.80;;;19.20;99.90;;;;;;5120370;28;20247;-82
2023/07/16 04:06:56;;;;;;;9.20;8.90;;;19.20;99.90;;;;;;5120223;28;20232;-83
2023/07/16 04:09:25;;;;;;;9.20;8.90;;;19.20;99.90;;;;;;5120430;28;20228;-82
2023/07/16 04:11:53;;;;;;;9.20;8.90;;;19.20;99.90;;;;;;5121744;27;20225;-82
2023/07/16 04:14:21;;;;;;;9.40;9.10;;;19.10;99.90;;;;;;5124294;28;20263;-83
2023/07/16 04:16:49;;;;;;;9.48;9.18;;;19.00;99.90;;;;;;5123718;28;20241;-82
2023/07/16 04:19:17;;;;;;;9.50;9.20;;;18.90;99.90;;;;;;5123809;28;20232;-83
2023/07/16 04:21:46;;;;;;;9.57;9.27;;;18.80;99.90;;;;;;5123571;27;20267;-83
2023/07/16 04:24:15;;;;;;;9.60;9.30;;;18.80;99.90;;;;;;5124177;28;20229;-82
2023/07/16 04:26:45;;;;;;;9.60;9.30;;;18.70;99.90;;;;;;5126454;28;20235;-83
2023/07/16 04:29:12;;;;;;;9.80;9.50;;;18.60;99.90;;;;;;5126122;28;20239;-82
2023/07/16 04:31:40;;;;;;;9.70;9.40;;;18.60;99.90;;;;;;5140972;27;20227;-82
2023/07/16 04:34:08;;;;;;;9.68;9.38;;;18.50;99.90;;;;;;5137152;27;20229;-83
2023/07/16 04:36:36;;;;;;;9.85;9.55;;;18.50;99.90;;;;;;5122162;28;20284;-82
2023/07/16 04:39:07;;;;;;;9.85;9.55;;;18.40;99.90;;;;;;5122942;28;20274;-82
2023/07/16 04:41:35;;;;;;;9.75;9.45;;;18.40;99.90;;;;;;5122487;27;20232;-83
2023/07/16 04:44:11;;;;;;;9.98;9.68;;;18.40;99.90;;;;;;5123621;28;20286;-83
2023/07/16 04:46:40;;;;;;;9.90;9.60;;;18.40;99.90;;;;;;5123765;28;20267;-82
2023/07/16 04:49:08;;;;;;;10.05;9.75;;;18.40;99.90;;;;;;5129154;28;20212;-82
2023/07/16 04:51:35;;;;;;;10.00;9.70;;;18.50;99.90;;;;;;5165463;22;20258;-79
2023/07/16 04:54:04;;;;;;;10.15;9.85;;;18.40;99.90;;;;;;5143715;27;20224;-79
2023/07/16 04:56:31;;;;;;;10.10;9.80;;;18.40;99.90;;;;;;5143122;27;20228;-79
2023/07/16 04:58:59;;;;;;;9.90;9.60;;;18.40;99.90;;;;;;5143614;27;20339;-79
2023/07/16 05:01:27;;;;;;;10.05;9.75;;;18.40;99.90;;;;;;5131246;27;20300;-79
2023/07/16 05:03:54;;;;;;;10.10;9.80;;;18.50;99.90;;;;;;5122174;28;20284;-79
2023/07/16 05:06:21;;;;;;;10.00;9.70;;;18.50;99.90;;;;;;5122746;28;20228;-79
2023/07/16 05:08:49;;;;;;;9.88;9.57;;;18.50;99.90;;;;;;5123025;28;20320;-79
2023/07/16 05:11:18;;;;;;;10.15;9.85;;;18.50;99.90;;;;;;5122074;27;20319;-79
2023/07/16 05:13:45;;;;;;;10.00;9.70;;;18.60;99.90;;;;;;5122505;28;20239;-79
2023/07/16 05:16:13;;;;;;;9.98;9.68;;;18.60;99.90;;;;;;5124134;28;20235;-79
2023/07/16 05:18:40;;;;;;;10.00;9.70;;;18.60;99.90;;;;;;5123196;28;20792;-80
2023/07/16 05:21:08;;;;;;;10.07;9.77;;;18.60;99.90;;;;;;5122350;27;20243;-78
2023/07/16 05:23:35;;;;;;;10.00;9.70;;;18.50;99.90;;;;;;5120910;27;20272;-78
2023/07/16 05:26:02;;;;;;;9.80;9.50;;;18.50;99.90;;;;;;5121799;28;20242;-78
2023/07/16 05:28:31;;;;;;;9.98;9.68;;;18.50;99.90;;;;;;5121919;28;20239;-79
2023/07/16 05:31:00;;;;;;;9.75;9.45;;;18.50;99.90;;;;;;5120988;27;20280;-78
2023/07/16 05:33:28;;;;;;;9.65;9.35;;;18.50;99.90;;;;;;5122039;28;20363;-79
2023/07/16 05:35:55;;;;;;;9.70;9.40;;;18.40;99.90;;;;;;5121568;28;20293;-79
2023/07/16 05:38:23;;;;;;;9.88;9.57;;;18.40;99.90;;;;;;5123105;28;20287;-79
2023/07/16 05:40:51;;;;;;;9.80;9.50;;;18.40;99.90;;;;;;5121330;27;20286;-78
2023/07/16 05:43:18;;;;;;;9.63;9.32;;;18.30;99.90;;;;;;5120365;28;20312;-77
2023/07/16 05:45:47;;;;;;;9.80;9.50;;;18.30;99.90;;;;;;5117857;28;20255;-77
2023/07/16 05:48:15;;;;;;;10.00;9.70;;;18.30;99.90;;;;;;5121785;28;20228;-78
2023/07/16 05:50:45;;;;;;;9.63;9.32;;;18.20;99.90;;;;;;5120430;28;20241;-79
2023/07/16 05:53:13;;;;;;;9.52;9.23;;;18.30;99.90;;;;;;5121660;28;20225;-78
2023/07/16 05:55:41;;;;;;;9.60;9.30;;;18.30;99.90;;;;;;5121160;28;20232;-79
2023/07/16 05:58:09;;;;;;;9.70;9.40;;;18.30;99.90;;;;;;5120997;28;20301;-79
2023/07/16 06:00:36;;;;;;;9.60;9.30;;;18.40;99.90;;;;;;5120803;28;20289;-79
2023/07/16 06:03:05;;;;;;;9.40;9.10;;;18.50;99.90;;;;;;5121274;28;20217;-78
2023/07/16 06:05:34;;;;;;;9.43;9.13;;;18.50;99.90;;;;;;5120592;28;20296;-79
2023/07/16 06:08:02;;;;;;;9.35;9.05;;;18.60;99.90;;;;;;5121422;28;20229;-79
2023/07/16 06:10:29;;;;;;;9.40;9.10;;;18.60;99.90;;;;;;5120283;28;20240;-80
2023/07/16 06:12:57;;;;;;;9.40;9.10;;;18.60;99.90;;;;;;5120051;28;20229;-79
2023/07/16 06:15:24;;;;;;;9.50;9.20;;;18.60;99.90;;;;;;5120583;28;20296;-79
2023/07/16 06:17:52;;;;;;;9.50;9.20;;;18.60;99.90;;;;;;5121244;28;20240;-79
2023/07/16 06:20:21;;;;;;;9.70;9.40;;;18.70;99.90;;;;;;5119926;27;20243;-78
2023/07/16 06:22:48;;;;;;;9.43;9.13;;;18.70;99.90;;;;;;5120008;28;20221;-79
2023/07/16 06:25:16;;;;;;;9.52;9.23;;;18.70;99.90;;;;;;5119803;28;20239;-78
2023/07/16 06:27:43;;;;;;;9.60;9.30;;;18.70;99.90;;;;;;5120095;28;20323;-78
2023/07/16 06:30:11;;;;;;;9.55;9.25;;;18.70;99.90;;;;;;5119917;27;20252;-79
2023/07/16 06:32:38;;;;;;;9.48;9.18;;;18.70;99.90;;;;;;5120503;28;20221;-79
2023/07/16 06:35:06;;;;;;;9.40;9.10;;;18.80;99.90;;;;;;5118926;28;20239;-78
2023/07/16 06:37:35;;;;;;;9.43;9.13;;;18.80;99.90;;;;;;5119979;28;20232;-78
2023/07/16 06:40:03;;;;;;;9.25;8.95;;;18.90;99.90;;;;;;5119596;28;20229;-78
2023/07/16 06:42:30;;;;;;;9.15;8.85;;;19.00;99.90;;;;;;5119202;28;20225;-78
2023/07/16 06:44:58;;;;;;;9.40;9.10;;;19.00;99.90;;;;;;5119247;28;20229;-78
2023/07/16 06:47:25;;;;;;;9.40;9.10;;;19.00;99.90;;;;;;5119679;28;20239;-78
2023/07/16 06:49:53;;;;;;;9.60;9.30;;;19.10;99.90;;;;;;5119425;28;20263;-79
2023/07/16 06:52:21;;;;;;;9.77;9.48;;;19.20;99.90;;;;;;5119153;27;20263;-78
2023/07/16 06:54:50;;;;;;;9.20;8.90;;;19.30;99.90;;;;;;5119746;28;20237;-80
2023/07/16 06:57:17;;;;;;;9.30;9.00;;;19.40;99.90;;;;;;5119650;28;20744;-78
2023/07/16 06:59:45;;;;;;;9.32;9.02;;;19.50;99.90;;;;;;5119695;28;20228;-78
2023/07/16 07:02:13;;;;;;;9.60;9.30;;;19.50;99.90;;;;;;5119096;28;20279;-78
2023/07/16 07:04:41;;;;;;;9.40;9.10;;;19.50;99.90;;;;;;5119010;28;20236;-79
2023/07/16 07:07:08;;;;;;;9.20;8.90;;;19.50;99.90;;;;;;5119539;28;20232;-79
2023/07/16 07:09:36;;;;;;;9.40;9.10;;;19.60;99.90;;;;;;5119187;28;20229;-79
2023/07/16 07:12:06;;;;;;;9.43;9.13;;;19.60;99.90;;;;;;5119567;27;20240;-78
2023/07/16 07:14:35;;;;;;;9.60;9.30;;;19.60;99.90;;;;;;5119573;28;20231;-79
2023/07/16 07:17:02;;;;;;;9.52;9.23;;;19.60;99.90;;;;;;5118934;28;20339;-78
2023/07/16 07:19:29;;;;;;;9.50;9.20;;;19.60;99.90;;;;;;5118862;28;20248;-78
2023/07/16 07:21:57;;;;;;;9.50;9.20;;;19.50;99.90;;;;;;5119692;27;20232;-78
2023/07/16 07:24:25;;;;;;;9.45;9.15;;;19.40;99.90;;;;;;5119172;28;20228;-76
2023/07/16 07:26:52;;;;;;;9.85;9.55;;;19.40;99.90;;;;;;5118344;28;20321;-77
2023/07/16 07:29:21;;;;;;;9.60;9.30;;;19.40;99.90;;;;;;5116783;28;20220;-77
2023/07/16 07:31:48;;;;;;;9.40;9.10;;;19.50;99.90;;;;;;5116314;28;20229;-79
2023/07/16 07:34:16;;;;;;;9.52;9.23;;;19.50;99.90;;;;;;5116488;28;20706;-77
2023/07/16 07:36:44;;;;;;;9.77;9.48;;;19.50;99.90;;;;;;5115571;28;20239;-79
2023/07/16 07:39:13;;;;;;;9.77;9.48;;;19.60;99.90;;;;;;5116932;28;20240;-78
2023/07/16 07:41:40;;;;;;;9.60;9.30;;;19.70;99.90;;;;;;5116939;27;20243;-79
2023/07/16 07:44:08;;;;;;;9.70;9.40;;;19.80;99.90;;;;;;5116928;28;20239;-77
2023/07/16 07:46:37;;;;;;;9.85;9.55;;;20.00;99.90;;;;;;5116181;28;20228;-78
2023/07/16 07:49:04;;;;;;;9.88;9.57;;;20.10;99.90;;;;;;5117098;28;20236;-78
2023/07/16 07:51:31;;;;;;;9.93;9.63;;;20.10;99.90;;;;;;5117994;27;20239;-77
2023/07/16 07:53:59;;;;;;;9.98;9.68;;;20.10;99.90;;;;;;5121384;28;20248;-77
2023/07/16 07:56:26;;;;;;;10.13;9.82;;;20.10;99.90;;;;;;5122481;28;20678;-78
2023/07/16 07:58:54;;;;;;;9.90;9.60;;;20.20;99.90;;;;;;5122297;28;20276;-77
2023/07/16 08:01:21;;;;;;;9.88;9.57;;;20.20;99.90;;;;;;5119952;28;20319;-77
2023/07/16 08:03:50;;;;;;;9.70;9.40;;;20.10;99.90;;;;;;5118725;28;20235;-77
2023/07/16 08:06:17;;;;;;;9.80;9.50;;;20.10;99.90;;;;;;5118968;28;20229;-78
2023/07/16 08:08:45;;;;;;;9.60;9.30;;;20.10;99.90;;;;;;5118152;28;20233;-78
2023/07/16 08:11:12;;;;;;;9.43;9.13;;;20.10;99.90;;;;;;5118122;28;20267;-77
2023/07/16 08:13:40;;;;;;;9.50;9.20;;;20.10;99.90;;;;;;5118142;28;20228;-78
2023/07/16 08:16:09;;;;;;;9.40;9.10;;;20.00;99.90;;;;;;5116973;28;20231;-78
2023/07/16 08:18:36;;;;;;;9.43;9.13;;;20.00;99.90;;;;;;5117081;28;20300;-79
2023/07/16 08:21:05;;;;;;;9.80;9.50;;;20.00;99.90;;;;;;5116040;28;20297;-77
2023/07/16 08:23:33;;;;;;;9.98;9.68;;;20.10;99.90;;;;;;5117035;28;20220;-77
2023/07/16 08:26:00;;;;;;;10.07;9.77;;;20.10;99.90;;;;;;5117193;28;20296;-77
2023/07/16 08:28:28;;;;;;;9.93;9.63;;;20.10;99.90;;;;;;5117117;28;20237;-77
2023/07/16 08:30:55;;;;;;;9.90;9.60;;;20.20;99.90;;;;;;5116524;28;20282;-77
2023/07/16 08:33:22;;;;;;;9.75;9.45;;;20.20;99.90;;;;;;5116101;28;20233;-77
2023/07/16 08:35:50;;;;;;;9.48;9.18;;;20.10;99.90;;;;;;5118684;28;20292;-78
2023/07/16 08:38:19;;;;;;;9.52;9.23;;;20.10;99.90;;;;;;5117015;28;20339;-77
2023/07/16 08:40:49;;;;;;;9.60;9.30;;;20.10;99.90;;;;;;5115872;27;20328;-78
2023/07/16 08:43:18;;;;;;;9.50;9.20;;;20.10;99.90;;;;;;5116652;28;20232;-76
2023/07/16 08:45:46;;;;;;;9.27;8.98;;;20.30;99.90;;;;;;5116026;28;20221;-77
2023/07/16 08:48:14;;;;;;;9.90;9.60;;;20.40;99.90;;;;;;5116151;28;20324;-78
2023/07/16 08:50:43;;;;;;;9.90;9.60;;;20.60;99.90;;;;;;5115659;27;20243;-78
2023/07/16 08:53:10;;;;;;;9.95;9.65;;;20.80;99.90;;;;;;5117622;28;20236;-78
2023/07/16 08:55:39;;;;;;;9.93;9.63;;;20.90;99.90;;;;;;5117307;28;20292;-77
2023/07/16 08:58:07;;;;;;;10.00;9.70;;;21.10;99.90;;;;;;5117816;27;20328;-78
2023/07/16 09:00:35;;;;;;;9.80;9.50;;;21.30;99.90;;;;;;5119932;27;20237;-79
2023/07/16 09:03:03;;;;;;;9.50;9.20;;;21.40;99.90;;;;;;5120286;28;20228;-77
2023/07/16 09:05:31;;;;;;;10.10;9.80;;;21.40;99.90;;;;;;5121369;28;20225;-77
2023/07/16 09:07:59;;;;;;;10.20;9.90;;;21.30;99.90;;;;;;5120525;28;20232;-79
2023/07/16 09:10:26;;;;;;;10.38;10.07;;;21.10;99.90;;;;;;5120272;27;20256;-79
2023/07/16 09:12:58;;;;;;;10.32;10.02;;;21.10;99.90;;;;;;5120507;28;20224;-78
2023/07/16 09:15:26;;;;;;;10.30;10.00;;;21.20;99.90;;;;;;5119895;28;20258;-78
2023/07/16 09:17:55;;;;;;;10.32;10.02;;;21.40;99.90;;;;;;5119130;28;20233;-77
2023/07/16 09:20:24;;;;;;;10.20;9.90;;;21.50;99.90;;;;;;5119878;27;20224;-78
2023/07/16 09:22:55;;;;;;;10.35;10.05;;;21.70;99.90;;;;;;5119703;28;20298;-78
2023/07/16 09:25:27;;;;;;;10.60;10.30;;;21.90;99.90;;;;;;5118605;28;20239;-78
2023/07/16 09:27:59;;;;;;;10.70;10.40;;;22.10;99.90;;;;;;5118794;28;20328;-77
2023/07/16 09:30:31;;;;;;;10.50;10.20;;;22.50;99.90;;;;;;5119409;27;20217;-78
2023/07/16 09:32:58;;;;;;;10.90;10.60;;;22.80;99.90;;;;;;5119506;28;20235;-78
2023/07/16 09:35:27;;;;;;;10.70;10.40;;;23.20;99.90;;;;;;5118245;28;20233;-78
2023/07/16 09:37:55;;;;;;;10.52;10.23;;;23.50;99.90;;;;;;5118904;28;20229;-78
2023/07/16 09:40:22;;;;;;;10.50;10.20;;;23.60;99.90;;;;;;5117669;27;20233;-78
2023/07/16 09:42:51;;;;;;;10.80;10.50;;;23.70;99.90;;;;;;5119034;28;20213;-78
2023/07/16 09:45:21;;;;;;;10.73;10.43;;;23.60;99.90;;;;;;5117807;28;20235;-78
2023/07/16 09:47:49;;;;;;;10.68;10.38;;;23.80;99.90;;;;;;5118818;28;20237;-78
2023/07/16 09:50:17;;;;;;;10.55;10.25;;;23.80;99.90;;;;;;5117295;28;20225;-78
2023/07/16 09:52:45;;;;;;;10.68;10.38;;;23.70;99.90;;;;;;5118476;28;20292;-78
2023/07/16 09:55:14;;;;;;;10.80;10.50;;;23.50;99.90;;;;;;5118297;28;20232;-78
2023/07/16 09:57:44;;;;;;;10.88;10.57;;;23.40;99.90;;;;;;5118413;28;20312;-78
2023/07/16 10:00:14;;;;;;;10.77;10.48;;;23.40;99.90;;;;;;5118229;27;20228;-78
2023/07/16 10:02:45;;;;;;;10.70;10.40;;;23.60;99.90;;;;;;5118833;28;20224;-78
2023/07/16 10:05:16;;;;;;;10.25;9.95;;;23.80;99.90;;;;;;5119988;28;20319;-78
2023/07/16 10:07:44;;;;;;;10.57;10.27;;;24.10;99.90;;;;;;5120377;28;20331;-78
2023/07/16 10:10:12;;;;;;;10.70;10.40;;;24.20;99.90;;;;;;5118128;27;20321;-78
2023/07/16 10:12:42;;;;;;;10.52;10.23;;;24.20;99.90;;;;;;5125280;28;20227;-77
2023/07/16 10:15:13;;;;;;;10.70;10.40;;;24.20;99.90;;;;;;5128654;28;20231;-78
2023/07/16 10:17:52;;;;;;;11.05;10.75;;;24.20;99.90;;;;;;5123793;28;20239;-77
2023/07/16 10:20:31;;;;;;;10.68;10.38;;;24.50;99.90;;;;;;5118175;28;20239;-78
2023/07/16 10:22:58;;;;;;;10.68;10.38;;;24.70;99.90;;;;;;5118504;28;20317;-78
2023/07/16 10:25:29;;;;;;;10.73;10.43;;;24.70;99.90;;;;;;5117995;28;20288;-78
2023/07/16 10:27:57;;;;;;;10.65;10.35;;;24.80;99.90;;;;;;5117525;28;20323;-78
2023/07/16 10:30:24;;;;;;;10.38;10.07;;;24.80;99.90;;;;;;5117826;27;20278;-77
2023/07/16 10:32:53;;;;;;;10.20;9.90;;;24.80;99.90;;;;;;5118237;28;20315;-79
2023/07/16 10:35:21;;;;;;;10.55;10.25;;;24.40;99.90;;;;;;5126045;28;20233;-78
2023/07/16 10:37:49;;;;;;;10.35;10.05;;;24.10;99.90;;;;;;5123316;28;20236;-78
2023/07/16 10:40:18;;;;;;;10.27;9.98;;;24.00;99.90;;;;;;5121971;27;20734;-78
2023/07/16 10:42:47;;;;;;;10.25;9.95;;;24.10;99.90;;;;;;5121024;28;20303;-79
2023/07/16 10:45:15;;;;;;;10.45;10.15;;;24.20;99.90;;;;;;5119695;28;20244;-78
2023/07/16 10:47:55;;;;;;;10.40;10.10;;;24.30;99.90;;;;;;5117899;28;20232;-78
2023/07/16 10:50:23;;;;;;;10.55;10.25;;;24.60;99.90;;;;;;5158801;22;20220;-82
2023/07/16 10:52:53;;;;;;;10.68;10.38;;;24.90;99.90;;;;;;5155242;27;20255;-81
2023/07/16 10:55:22;;;;;;;10.75;10.45;;;24.80;99.90;;;;;;5156030;27;20231;-82
2023/07/16 10:57:51;;;;;;;10.80;10.50;;;25.10;99.90;;;;;;5152364;27;20224;-83
2023/07/16 11:00:19;;;;;;;10.77;10.48;;;25.30;99.90;;;;;;5146245;27;20232;-84
2023/07/16 11:02:47;;;;;;;10.70;10.40;;;25.50;99.90;;;;;;5135383;27;20229;-83
2023/07/16 11:05:20;;;;;;;10.63;10.32;;;25.50;99.90;;;;;;5124088;28;20240;-84
2023/07/16 11:07:50;;;;;;;10.88;10.57;;;25.30;99.90;;;;;;5123216;28;20251;-84
2023/07/16 11:10:20;;;;;;;10.90;10.60;;;25.10;99.90;;;;;;5122743;27;20280;-84
2023/07/16 11:12:53;;;;;;;10.75;10.45;;;25.10;99.90;;;;;;5122872;28;20244;-84
2023/07/16 11:15:33;;;;;;;10.98;10.68;;;25.10;99.90;;;;;;5123165;28;20245;-84
2023/07/16 11:18:00;;;;;;;10.65;10.35;;;25.00;99.90;;;;;;5121575;28;20231;-83
2023/07/16 11:20:31;;;;;;;10.75;10.45;;;25.10;99.90;;;;;;5121796;27;20224;-84
2023/07/16 11:23:00;;;;;;;10.50;10.20;;;25.20;99.90;;;;;;5121096;28;20229;-83
2023/07/16 11:25:31;;;;;;;10.68;10.38;;;25.20;99.90;;;;;;5123008;28;20247;-84
2023/07/16 11:27:59;;;;;;;10.70;10.40;;;25.50;99.90;;;;;;5121770;28;20282;-83
2023/07/16 11:30:28;;;;;;;10.70;10.40;;;25.70;99.90;;;;;;5120761;27;20240;-83
2023/07/16 11:32:59;;;;;;;10.77;10.48;;;25.70;99.90;;;;;;5121402;28;20231;-83
2023/07/16 11:35:29;;;;;;;10.60;10.30;;;25.60;99.90;;;;;;5121736;28;20232;-83
2023/07/16 11:37:57;;;;;;;10.70;10.40;;;25.60;99.90;;;;;;5121343;28;20292;-83
2023/07/16 11:40:26;;;;;;;10.93;10.63;;;25.90;99.90;;;;;;5125112;27;20237;-83
2023/07/16 11:42:54;;;;;;;10.90;10.60;;;26.30;99.90;;;;;;5119017;28;20232;-83
2023/07/16 11:45:26;;;;;;;10.90;10.60;;;26.40;99.90;;;;;;5120039;28;20225;-83
2023/07/16 11:47:54;;;;;;;10.93;10.63;;;26.50;99.90;;;;;;5120842;28;20225;-83
2023/07/16 11:50:21;;;;;;;10.80;10.50;;;26.50;99.90;;;;;;5121518;27;20209;-83
2023/07/16 11:52:56;;;;;;;10.73;10.43;;;26.70;99.90;;;;;;5124387;28;20235;-84
2023/07/16 11:55:24;;;;;;;10.90;10.60;;;26.60;99.90;;;;;;5123466;28;20337;-84
2023/07/16 11:57:52;;;;;;;10.77;10.48;;;26.60;99.90;;;;;;5122365;28;20229;-83
2023/07/16 12:00:20;;;;;;;10.63;10.32;;;27.10;99.90;;;;;;5121476;27;20233;-84
2023/07/16 12:02:51;;;;;;;10.80;10.50;;;27.50;99.90;;;;;;5122182;28;20229;-83
2023/07/16 12:05:19;;;;;;;11.00;10.70;;;27.80;99.90;;;;;;5122265;28;20262;-83
2023/07/16 12:07:46;;;;;;;10.90;10.60;;;28.20;99.90;;;;;;5122219;28;20228;-83
2023/07/16 12:10:16;;;;;;;10.85;10.55;;;28.40;99.90;;;;;;5121916;28;20225;-84
2023/07/16 12:12:44;;;;;;;10.80;10.50;;;28.30;99.90;;;;;;5121073;28;20225;-84
2023/07/16 12:15:12;;;;;;;11.15;10.85;;;28.30;99.90;;;;;;5121136;28;20239;-84
2023/07/16 12:17:40;;;;;;;10.68;10.38;;;28.20;99.90;;;;;;5121184;28;20233;-84
2023/07/16 12:20:08;;;;;;;10.80;10.50;;;28.20;99.90;;;;;;5121430;28;20286;-84
2023/07/16 12:22:36;;;;;;;10.85;10.55;;;28.10;99.90;;;;;;5120756;28;20232;-82
2023/07/16 12:25:05;;;;;;;10.70;10.40;;;28.30;99.90;;;;;;5120318;28;20247;-83
2023/07/16 12:27:35;;;;;;;10.40;10.10;;;28.40;99.90;;;;;;5120891;28;20228;-82
2023/07/16 12:30:02;;;;;;;11.00;10.70;;;28.40;99.90;;;;;;5121366;28;20234;-83
2023/07/16 12:32:30;;;;;;;11.10;10.80;;;28.00;99.90;;;;;;5121555;28;20232;-83
2023/07/16 12:35:00;;;;;;;10.82;10.52;;;27.60;99.90;;;;;;5125776;28;20233;-84
2023/07/16 12:37:27;;;;;;;10.80;10.50;;;27.40;99.90;;;;;;5126241;28;20225;-84
2023/07/16 12:39:58;;;;;;;11.00;10.70;;;27.30;99.90;;;;;;5126181;28;20220;-83
2023/07/16 12:42:25;;;;;;;10.82;10.52;;;27.10;99.90;;;;;;5125843;27;20252;-84
2023/07/16 12:44:54;;;;;;;10.77;10.48;;;26.90;99.90;;;;;;5125602;28;20232;-84
2023/07/16 12:47:22;;;;;;;10.70;10.40;;;27.10;99.90;;;;;;5125338;28;20254;-83
2023/07/16 12:49:50;;;;;;;10.70;10.40;;;27.40;99.90;;;;;;5125587;28;20279;-83
2023/07/16 12:52:17;;;;;;;10.75;10.45;;;27.90;99.90;;;;;;5124906;28;20240;-83
2023/07/16 12:54:45;;;;;;;10.82;10.52;;;28.50;99.90;;;;;;5125009;28;20256;-84